Time;durP1;ratioP1;P1;durP2;ratioP2;P2;SDS_P1;SDS_P2;PMS_P1;PMS_P2;Temp;Humidity;BMP_temperature;BMP_pressure;BME280_temperature;BME280_humidity;BME280_pressure;Samples;Min_cycle;Max_cycle;Signal;HPM_P1;HPM_P2
2021/04/11 00:02:02;;;;;;;7.30;6.60;;;13.60;78.40;;;;;;5070478;28;20682;-50
2021/04/11 00:04:29;;;;;;;8.30;6.63;;;13.60;79.20;;;;;;5065013;28;20653;-51
2021/04/11 00:06:55;;;;;;;8.00;7.33;;;13.50;79.50;;;;;;5069356;28;20637;-51
2021/04/11 00:09:22;;;;;;;7.40;6.67;;;13.50;79.80;;;;;;5069574;28;20630;-50
2021/04/11 00:11:49;;;;;;;8.13;6.60;;;13.50;79.80;;;;;;5070459;28;20718;-50
2021/04/11 00:14:16;;;;;;;8.17;7.30;;;13.50;80.10;;;;;;5066195;28;21044;-51
2021/04/11 00:16:43;;;;;;;8.83;7.93;;;13.50;80.30;;;;;;5066063;28;20629;-51
2021/04/11 00:19:10;;;;;;;7.30;6.60;;;13.50;80.40;;;;;;5067505;28;20623;-51
2021/04/11 00:21:37;;;;;;;9.53;6.37;;;13.50;80.40;;;;;;5063734;28;20671;-51
2021/04/11 00:24:04;;;;;;;8.63;7.50;;;13.40;80.60;;;;;;5068716;28;20711;-51
2021/04/11 00:26:31;;;;;;;8.07;7.37;;;13.40;80.80;;;;;;5070399;28;20691;-51
2021/04/11 00:28:58;;;;;;;8.33;7.60;;;13.40;81.00;;;;;;5071597;28;20710;-55
2021/04/11 00:31:25;;;;;;;7.33;6.63;;;13.30;81.20;;;;;;5071341;28;20686;-51
2021/04/11 00:33:51;;;;;;;12.23;8.07;;;13.30;81.40;;;;;;5069051;28;20712;-51
2021/04/11 00:36:19;;;;;;;7.07;6.50;;;13.20;82.00;;;;;;5067420;28;21316;-50
2021/04/11 00:38:46;;;;;;;8.50;7.70;;;13.20;82.60;;;;;;5069191;28;20637;-50
2021/04/11 00:41:15;;;;;;;9.13;8.33;;;13.20;83.10;;;;;;5066803;28;20685;-50
2021/04/11 00:43:42;;;;;;;9.20;8.30;;;13.20;82.90;;;;;;5070006;28;20615;-51
2021/04/11 00:46:18;;;;;;;8.17;7.30;;;13.30;82.90;;;;;;5072145;28;20624;-50
2021/04/11 00:48:45;;;;;;;8.30;7.50;;;13.20;83.30;;;;;;5071536;28;20626;-51
2021/04/11 00:51:13;;;;;;;8.43;7.63;;;13.20;83.00;;;;;;5052393;28;21075;-52
2021/04/11 00:53:41;;;;;;;8.90;7.47;;;13.20;82.90;;;;;;5052123;28;21014;-52
2021/04/11 00:56:07;;;;;;;7.57;6.87;;;13.10;82.80;;;;;;5062143;28;20622;-50
2021/04/11 00:58:35;;;;;;;8.80;7.93;;;13.10;82.80;;;;;;5069210;28;20668;-50
2021/04/11 01:01:02;;;;;;;8.80;7.77;;;13.10;82.30;;;;;;5071503;28;20679;-50
2021/04/11 01:03:29;;;;;;;8.47;6.50;;;13.10;82.20;;;;;;5069180;28;20633;-51
2021/04/11 01:05:56;;;;;;;7.80;6.80;;;13.10;81.90;;;;;;5065388;28;20655;-50
2021/04/11 01:08:24;;;;;;;8.57;7.67;;;13.10;81.40;;;;;;5069820;28;20652;-51
2021/04/11 01:10:57;;;;;;;7.10;6.50;;;13.10;80.90;;;;;;5068628;28;20631;-51
2021/04/11 01:13:24;;;;;;;6.83;6.20;;;13.20;80.60;;;;;;5065295;28;21242;-51
2021/04/11 01:15:51;;;;;;;7.03;6.33;;;13.10;80.60;;;;;;5071576;28;21228;-51
2021/04/11 01:18:18;;;;;;;7.50;6.80;;;13.10;80.80;;;;;;5056209;28;20678;-51
2021/04/11 01:20:44;;;;;;;9.87;7.63;;;13.10;80.80;;;;;;5068575;28;21029;-51
2021/04/11 01:23:17;;;;;;;6.80;6.20;;;13.10;81.30;;;;;;5071113;28;20628;-51
2021/04/11 01:25:44;;;;;;;7.43;6.70;;;13.10;83.00;;;;;;5071289;28;20647;-51
2021/04/11 01:28:14;;;;;;;7.57;6.87;;;13.10;81.90;;;;;;5071171;28;20690;-51
2021/04/11 01:30:41;;;;;;;7.13;6.50;;;13.10;82.00;;;;;;5071384;28;20679;-51
2021/04/11 01:33:09;;;;;;;11.60;6.33;;;13.20;82.20;;;;;;5071651;28;20651;-51
2021/04/11 01:35:36;;;;;;;6.80;6.20;;;13.20;81.90;;;;;;5070759;28;20676;-51
2021/04/11 01:38:03;;;;;;;6.90;6.27;;;13.20;81.90;;;;;;5070993;28;20656;-51
2021/04/11 01:40:34;;;;;;;7.03;6.13;;;13.30;81.70;;;;;;5071192;28;20995;-51
2021/04/11 01:43:02;;;;;;;7.20;6.50;;;13.20;81.30;;;;;;5071704;28;20698;-51
2021/04/11 01:45:30;;;;;;;7.40;6.00;;;13.30;81.00;;;;;;5071807;28;20706;-52
2021/04/11 01:47:56;;;;;;;7.73;6.90;;;13.30;81.00;;;;;;5074899;28;20691;-51
2021/04/11 01:50:23;;;;;;;8.23;7.43;;;13.20;80.90;;;;;;5074586;28;20628;-51
2021/04/11 01:52:50;;;;;;;6.33;5.83;;;13.20;81.20;;;;;;5077712;28;20651;-51
2021/04/11 01:55:17;;;;;;;7.33;6.67;;;13.20;81.20;;;;;;5077383;28;20675;-51
2021/04/11 01:57:43;;;;;;;6.63;5.97;;;13.20;81.00;;;;;;5077626;28;20625;-51
2021/04/11 02:00:19;;;;;;;6.60;6.00;;;13.20;81.40;;;;;;5078216;28;20967;-51
2021/04/11 02:02:46;;;;;;;10.43;7.37;;;13.20;81.50;;;;;;5078203;28;20685;-51
2021/04/11 02:05:15;;;;;;;7.40;6.70;;;13.20;81.30;;;;;;5077696;28;20685;-51
2021/04/11 02:07:41;;;;;;;4.87;4.43;;;13.20;81.00;;;;;;5076996;28;20646;-51
2021/04/11 02:10:09;;;;;;;8.93;6.13;;;13.20;81.10;;;;;;5078086;28;21222;-51
2021/04/11 02:12:36;;;;;;;9.03;5.30;;;13.20;81.50;;;;;;5077898;28;20623;-51
2021/04/11 02:15:07;;;;;;;7.90;5.70;;;13.20;81.20;;;;;;5077059;28;20699;-51
2021/04/11 02:17:36;;;;;;;5.23;4.37;;;13.20;81.20;;;;;;5078380;28;20630;-52
2021/04/11 02:20:05;;;;;;;5.70;5.20;;;13.20;81.50;;;;;;5077961;28;21206;-51
2021/04/11 02:22:32;;;;;;;6.27;5.70;;;13.20;81.50;;;;;;5076995;28;21173;-51
2021/04/11 02:24:59;;;;;;;6.50;5.80;;;13.20;81.40;;;;;;5077435;28;20686;-51
2021/04/11 02:27:26;;;;;;;6.60;5.90;;;13.20;81.50;;;;;;5077542;28;20632;-51
2021/04/11 02:29:53;;;;;;;6.20;5.30;;;13.20;82.10;;;;;;5077448;28;20636;-50
2021/04/11 02:32:21;;;;;;;8.93;6.00;;;13.20;82.20;;;;;;5077961;28;20624;-51
2021/04/11 02:34:48;;;;;;;6.20;5.70;;;13.20;82.30;;;;;;5077299;28;20659;-51
2021/04/11 02:37:19;;;;;;;6.80;6.20;;;13.20;82.30;;;;;;5077494;28;20661;-51
2021/04/11 02:39:46;;;;;;;7.57;6.87;;;13.30;82.40;;;;;;5077465;28;20997;-50
2021/04/11 02:42:14;;;;;;;7.40;6.70;;;13.30;82.20;;;;;;5077590;28;20661;-51
2021/04/11 02:44:41;;;;;;;7.83;7.20;;;13.30;82.40;;;;;;5077378;28;20680;-51
2021/04/11 02:47:08;;;;;;;6.73;6.17;;;13.30;82.60;;;;;;5077551;28;20632;-50
2021/04/11 02:49:35;;;;;;;8.63;7.77;;;13.30;82.10;;;;;;5072287;28;20656;-51
2021/04/11 02:52:05;;;;;;;8.97;8.07;;;13.30;82.30;;;;;;5071011;28;20664;-51
2021/04/11 02:54:32;;;;;;;8.70;7.80;;;13.40;82.00;;;;;;5077392;28;20700;-51
2021/04/11 02:56:59;;;;;;;7.10;6.40;;;13.40;81.60;;;;;;5077744;28;20629;-51
2021/04/11 02:59:25;;;;;;;7.50;6.80;;;13.30;81.40;;;;;;5073396;28;20642;-51
2021/04/11 03:01:52;;;;;;;9.03;7.97;;;13.30;81.20;;;;;;5074221;28;20663;-50
2021/04/11 03:04:20;;;;;;;7.80;6.83;;;13.20;80.70;;;;;;5074497;28;20714;-51
2021/04/11 03:06:48;;;;;;;7.30;6.60;;;13.20;80.50;;;;;;5074221;28;20678;-51
2021/04/11 03:09:19;;;;;;;7.90;7.10;;;13.10;80.90;;;;;;5073958;28;21043;-50
2021/04/11 03:11:48;;;;;;;8.47;7.67;;;13.10;80.90;;;;;;5074250;28;20656;-51
2021/04/11 03:14:15;;;;;;;7.33;6.30;;;13.10;80.80;;;;;;5073549;28;20794;-51
2021/04/11 03:16:42;;;;;;;6.67;6.17;;;13.10;80.90;;;;;;5053971;28;20617;-51
2021/04/11 03:19:08;;;;;;;6.77;6.07;;;13.10;80.50;;;;;;5053695;28;20632;-52
2021/04/11 03:21:35;;;;;;;6.93;6.37;;;13.10;80.10;;;;;;5054090;28;20675;-51
2021/04/11 03:24:03;;;;;;;6.73;5.63;;;13.10;80.30;;;;;;5053566;28;20766;-51
2021/04/11 03:26:33;;;;;;;6.50;5.90;;;13.20;79.90;;;;;;5053666;28;20620;-51
2021/04/11 03:29:02;;;;;;;6.27;5.67;;;13.20;78.80;;;;;;5060415;28;21230;-52
2021/04/11 03:31:31;;;;;;;5.63;5.13;;;13.30;78.20;;;;;;5072332;28;20651;-51
2021/04/11 03:33:59;;;;;;;6.83;6.20;;;13.40;77.10;;;;;;5073741;28;20664;-51
2021/04/11 03:36:26;;;;;;;9.07;5.33;;;13.40;76.60;;;;;;5073638;28;20653;-52
2021/04/11 03:38:53;;;;;;;7.03;5.37;;;13.40;76.10;;;;;;5073238;28;20628;-52
2021/04/11 03:41:19;;;;;;;5.57;5.17;;;13.40;75.70;;;;;;5073790;28;20629;-52
2021/04/11 03:43:48;;;;;;;5.97;5.10;;;13.40;75.30;;;;;;5073333;28;21017;-52
2021/04/11 03:46:18;;;;;;;9.13;6.07;;;13.50;75.10;;;;;;5073120;28;20617;-52
2021/04/11 03:48:47;;;;;;;11.23;5.30;;;13.50;75.20;;;;;;5073103;28;20625;-49
2021/04/11 03:51:17;;;;;;;5.07;4.67;;;13.50;75.30;;;;;;5072649;28;20983;-51
2021/04/11 03:53:45;;;;;;;5.83;5.23;;;13.50;75.10;;;;;;5072971;28;20629;-51
2021/04/11 03:56:15;;;;;;;6.20;5.30;;;13.40;75.00;;;;;;5072462;28;20722;-51
2021/04/11 03:58:43;;;;;;;5.93;5.30;;;13.40;75.20;;;;;;5072428;28;21036;-51
2021/04/11 04:01:13;;;;;;;9.33;5.97;;;13.40;75.20;;;;;;5072880;28;20682;-51
2021/04/11 04:03:40;;;;;;;6.20;5.17;;;13.40;74.90;;;;;;5064622;28;20691;-52
2021/04/11 04:06:09;;;;;;;4.20;3.80;;;13.30;75.30;;;;;;5072751;28;20640;-51
2021/04/11 04:08:37;;;;;;;5.80;5.00;;;13.40;75.30;;;;;;5072132;28;20630;-51
2021/04/11 04:11:10;;;;;;;6.00;4.90;;;13.40;75.70;;;;;;5071452;28;20700;-51
2021/04/11 04:13:50;;;;;;;8.17;6.17;;;13.30;77.10;;;;;;5072039;28;20690;-51
2021/04/11 04:16:19;;;;;;;5.57;4.80;;;13.20;78.50;;;;;;5072601;28;20692;-51
2021/04/11 04:19:12;;;;;;;9.60;4.93;;;13.10;80.30;;;;;;5072141;28;20636;-52
2021/04/11 04:21:53;;;;;;;5.87;5.27;;;12.90;82.80;;;;;;5072441;28;20625;-52
2021/04/11 04:24:27;;;;;;;5.00;4.50;;;12.80;84.40;;;;;;5072521;28;20675;-51
2021/04/11 04:26:57;;;;;;;6.37;5.33;;;12.60;86.10;;;;;;5072757;28;20677;-52
2021/04/11 04:29:27;;;;;;;5.90;5.37;;;12.50;87.20;;;;;;5071827;28;20644;-52
2021/04/11 04:32:31;;;;;;;4.90;4.50;;;12.50;87.70;;;;;;5072496;28;20674;-52
2021/04/11 04:35:15;;;;;;;5.50;4.30;;;12.50;88.40;;;;;;5006499;28;20666;-51
2021/04/11 04:37:50;;;;;;;7.53;5.57;;;12.50;89.60;;;;;;5064073;28;20637;-51
2021/04/11 04:40:24;;;;;;;5.57;4.50;;;12.50;90.00;;;;;;5072333;28;20619;-52
2021/04/11 04:42:53;;;;;;;8.43;5.10;;;12.50;90.40;;;;;;5072331;28;20682;-52
2021/04/11 04:45:24;;;;;;;5.07;4.50;;;12.50;90.50;;;;;;5071840;28;20726;-52
2021/04/11 04:47:52;;;;;;;5.73;4.37;;;12.60;90.80;;;;;;5072119;28;20629;-52
2021/04/11 04:50:20;;;;;;;8.43;4.70;;;12.60;90.80;;;;;;5065396;28;20625;-52
2021/04/11 04:53:04;;;;;;;4.90;3.37;;;12.60;90.80;;;;;;5069896;28;21161;-52
2021/04/11 04:55:32;;;;;;;4.67;3.93;;;12.70;91.10;;;;;;5066887;28;21297;-51
2021/04/11 04:58:01;;;;;;;4.13;3.73;;;12.80;91.20;;;;;;5071416;28;20683;-52
2021/04/11 05:00:30;;;;;;;3.40;3.10;;;12.80;91.30;;;;;;5071749;28;21042;-51
2021/04/11 05:03:04;;;;;;;3.53;2.83;;;12.90;91.50;;;;;;5069940;28;20670;-51
2021/04/11 05:05:31;;;;;;;3.73;3.30;;;12.90;91.40;;;;;;5070792;28;20648;-52
2021/04/11 05:08:01;;;;;;;4.67;3.87;;;13.00;91.60;;;;;;5071424;28;21172;-52
2021/04/11 05:10:32;;;;;;;2.80;2.60;;;13.00;91.60;;;;;;5070510;28;21161;-51
2021/04/11 05:13:00;;;;;;;2.53;2.33;;;13.10;91.60;;;;;;5071399;28;20633;-52
2021/04/11 05:15:29;;;;;;;4.40;3.23;;;13.20;91.60;;;;;;5071458;28;20657;-51
2021/04/11 05:17:58;;;;;;;3.63;3.23;;;13.20;91.60;;;;;;5070761;28;20686;-52
2021/04/11 05:20:27;;;;;;;3.77;2.57;;;13.30;91.60;;;;;;5071036;28;20624;-52
2021/04/11 05:22:58;;;;;;;2.90;2.70;;;13.30;91.50;;;;;;5071348;28;20671;-52
2021/04/11 05:25:29;;;;;;;2.67;2.27;;;13.40;91.40;;;;;;5071140;28;21060;-52
2021/04/11 05:27:57;;;;;;;3.10;2.40;;;13.50;91.30;;;;;;5069782;28;20629;-51
2021/04/11 05:30:25;;;;;;;3.97;2.40;;;13.50;91.20;;;;;;5071009;28;20617;-50
2021/04/11 05:32:52;;;;;;;2.90;2.60;;;13.50;91.00;;;;;;5071495;28;20652;-51
2021/04/11 05:35:20;;;;;;;3.20;2.33;;;13.60;90.50;;;;;;5070720;28;20764;-52
2021/04/11 05:37:52;;;;;;;2.97;2.07;;;13.60;90.30;;;;;;5070685;28;20965;-52
2021/04/11 05:40:22;;;;;;;4.93;2.07;;;13.60;90.20;;;;;;5070872;28;20637;-52
2021/04/11 05:42:54;;;;;;;2.37;2.10;;;13.60;90.00;;;;;;5071040;28;20625;-52
2021/04/11 05:45:22;;;;;;;2.57;2.37;;;13.70;89.20;;;;;;5071232;28;20656;-52
2021/04/11 05:48:01;;;;;;;3.40;2.43;;;13.70;88.30;;;;;;5070766;28;21246;-51
2021/04/11 05:50:33;;;;;;;5.97;2.87;;;13.80;87.10;;;;;;5071219;28;20633;-50
2021/04/11 05:53:01;;;;;;;7.00;3.10;;;13.80;87.20;;;;;;5070636;28;20643;-51
2021/04/11 05:55:29;;;;;;;3.77;2.37;;;13.80;87.40;;;;;;5070609;28;21212;-51
2021/04/11 05:57:57;;;;;;;4.87;3.20;;;13.80;87.20;;;;;;5070699;28;20670;-51
2021/04/11 06:00:25;;;;;;;2.63;2.37;;;13.90;86.00;;;;;;5071250;28;20629;-51
2021/04/11 06:02:53;;;;;;;2.70;2.20;;;13.90;85.80;;;;;;5070777;28;20663;-51
2021/04/11 06:05:24;;;;;;;7.40;2.33;;;13.90;85.80;;;;;;5071213;28;20699;-51
2021/04/11 06:07:52;;;;;;;2.50;2.30;;;14.00;85.50;;;;;;5070200;28;21055;-51
2021/04/11 06:10:22;;;;;;;3.03;2.50;;;14.00;85.00;;;;;;5070656;28;20633;-51
2021/04/11 06:12:51;;;;;;;3.37;2.90;;;14.10;85.10;;;;;;5068948;28;20613;-51
2021/04/11 06:15:21;;;;;;;4.10;2.70;;;14.10;85.30;;;;;;5068351;28;20694;-51
2021/04/11 06:17:48;;;;;;;3.90;2.97;;;14.20;85.10;;;;;;5070635;28;20637;-51
2021/04/11 06:20:15;;;;;;;7.83;4.67;;;14.20;84.20;;;;;;5068205;28;20651;-51
2021/04/11 06:22:44;;;;;;;3.47;2.60;;;14.20;83.00;;;;;;5070357;28;20698;-51
2021/04/11 06:25:14;;;;;;;3.60;3.27;;;14.30;82.60;;;;;;5069243;28;20715;-51
2021/04/11 06:27:45;;;;;;;5.00;3.67;;;14.30;81.70;;;;;;5070521;28;20706;-51
2021/04/11 06:30:14;;;;;;;4.60;3.93;;;14.30;81.60;;;;;;5062763;28;20651;-51
2021/04/11 06:32:44;;;;;;;5.20;3.60;;;14.30;80.80;;;;;;5070522;28;20690;-51
2021/04/11 06:35:12;;;;;;;4.67;3.43;;;14.30;79.60;;;;;;5072252;28;20668;-51
2021/04/11 06:37:39;;;;;;;4.13;3.63;;;14.20;79.00;;;;;;5072151;28;20670;-51
2021/04/11 06:40:10;;;;;;;7.10;5.00;;;14.20;78.70;;;;;;5072256;28;20679;-51
2021/04/11 06:42:55;;;;;;;5.80;3.60;;;14.20;77.20;;;;;;5067595;28;21173;-51
2021/04/11 06:45:25;;;;;;;3.13;2.93;;;14.20;77.10;;;;;;5072587;28;20718;-51
2021/04/11 06:48:21;;;;;;;4.17;3.80;;;14.20;77.30;;;;;;5073681;28;20621;-51
2021/04/11 06:51:08;;;;;;;4.20;3.60;;;14.20;77.20;;;;;;5063629;28;21180;-51
2021/04/11 06:54:06;;;;;;;6.53;4.20;;;14.20;77.10;;;;;;5057253;28;20671;-51
2021/04/11 06:56:37;;;;;;;5.10;3.77;;;14.20;76.70;;;;;;5067977;28;21202;-52
2021/04/11 06:59:13;;;;;;;6.20;3.97;;;14.10;77.10;;;;;;5071109;28;20633;-51
2021/04/11 07:02:00;;;;;;;6.13;4.00;;;14.10;78.40;;;;;;5073058;28;20709;-51
2021/04/11 07:04:36;;;;;;;6.03;4.10;;;14.10;78.40;;;;;;5066829;28;20677;-51
2021/04/11 07:07:33;;;;;;;4.30;4.00;;;14.20;78.20;;;;;;5072981;28;20664;-50
2021/04/11 07:10:13;;;;;;;6.20;3.70;;;14.20;78.20;;;;;;5049300;28;21255;-51
2021/04/11 07:13:16;;;;;;;3.43;2.77;;;14.20;77.90;;;;;;5073174;28;20686;-51
2021/04/11 07:15:53;;;;;;;6.07;3.80;;;14.30;77.50;;;;;;5067689;28;20668;-51
2021/04/11 07:18:52;;;;;;;4.63;3.80;;;14.30;77.80;;;;;;5070308;28;20683;-50
2021/04/11 07:22:10;;;;;;;4.03;3.70;;;14.40;77.90;;;;;;5066333;28;20629;-51
2021/04/11 07:24:47;;;;;;;3.63;3.20;;;14.40;77.10;;;;;;5028079;28;20671;-51
2021/04/11 07:27:19;;;;;;;3.70;3.33;;;14.50;76.70;;;;;;5070952;28;20719;-51
2021/04/11 07:30:08;;;;;;;3.57;3.27;;;14.50;76.60;;;;;;5070383;28;20632;-52
2021/04/11 07:32:53;;;;;;;4.23;3.83;;;14.50;76.80;;;;;;5069517;28;20682;-51
2021/04/11 07:35:26;;;;;;;5.03;3.43;;;14.50;76.40;;;;;;5063786;28;20726;-51
2021/04/11 07:38:21;;;;;;;4.67;3.27;;;14.60;76.50;;;;;;5070154;28;20686;-51
2021/04/11 07:41:04;;;;;;;4.93;3.70;;;14.60;76.50;;;;;;5069344;28;20620;-51
2021/04/11 07:44:07;;;;;;;3.50;3.20;;;14.60;76.30;;;;;;5064752;28;20617;-51
2021/04/11 07:46:44;;;;;;;4.40;3.23;;;14.60;76.20;;;;;;5071222;28;20677;-51
2021/04/11 07:49:45;;;;;;;4.40;3.23;;;14.70;76.20;;;;;;5073016;28;20675;-51
2021/04/11 07:52:33;;;;;;;4.50;3.60;;;14.80;75.20;;;;;;5070479;28;21024;-51
2021/04/11 07:55:18;;;;;;;3.40;3.10;;;14.90;75.60;;;;;;5067914;28;20668;-51
2021/04/11 07:58:13;;;;;;;3.77;3.37;;;15.10;75.10;;;;;;5068840;28;20670;-51
2021/04/11 08:01:12;;;;;;;4.47;3.00;;;15.30;73.80;;;;;;5065767;28;20678;-52
2021/04/11 08:03:55;;;;;;;5.20;2.60;;;15.50;73.80;;;;;;5068742;28;20637;-52
2021/04/11 08:06:40;;;;;;;5.03;3.13;;;15.90;73.10;;;;;;5065780;28;20637;-52
2021/04/11 08:09:27;;;;;;;5.53;2.80;;;16.20;70.70;;;;;;5071314;28;21030;-52
2021/04/11 08:12:28;;;;;;;3.23;2.83;;;16.60;68.50;;;;;;5070727;28;20633;-51
2021/04/11 08:14:59;;;;;;;3.33;2.10;;;16.90;67.30;;;;;;5065155;28;20679;-52
2021/04/11 08:17:42;;;;;;;4.10;2.90;;;17.20;65.10;;;;;;5065061;28;21260;-52
2021/04/11 08:20:25;;;;;;;9.63;4.70;;;17.30;63.90;;;;;;5066024;28;20636;-52
2021/04/11 08:23:27;;;;;;;3.60;1.43;;;17.40;62.40;;;;;;5065972;28;20663;-52
2021/04/11 08:25:57;;;;;;;3.00;2.00;;;17.60;60.70;;;;;;5070792;28;20710;-52
2021/04/11 08:28:38;;;;;;;2.87;2.37;;;17.60;60.30;;;;;;5071814;28;20625;-52
2021/04/11 08:31:30;;;;;;;3.13;2.33;;;17.40;59.50;;;;;;5072212;28;20628;-52
2021/04/11 08:34:19;;;;;;;3.20;1.90;;;17.20;60.80;;;;;;5072035;28;20633;-52
2021/04/11 08:37:04;;;;;;;4.30;2.27;;;17.20;61.20;;;;;;5068899;28;20699;-52
2021/04/11 08:39:51;;;;;;;2.80;2.50;;;17.10;60.70;;;;;;5062275;28;21390;-52
2021/04/11 08:42:31;;;;;;;2.57;2.10;;;16.90;60.70;;;;;;5062690;28;20725;-52
2021/04/11 08:45:13;;;;;;;3.80;2.50;;;16.90;62.00;;;;;;5068393;28;20660;-52
2021/04/11 08:47:45;;;;;;;4.83;1.93;;;17.10;62.30;;;;;;5071914;28;20613;-52
2021/04/11 08:50:16;;;;;;;3.90;1.70;;;17.30;61.20;;;;;;5067538;28;21210;-52
2021/04/11 08:52:44;;;;;;;5.53;2.17;;;17.50;61.10;;;;;;5070905;28;20782;-51
2021/04/11 08:55:21;;;;;;;7.57;2.87;;;17.60;59.80;;;;;;5071340;28;20752;-51
2021/04/11 08:57:57;;;;;;;1.70;1.53;;;17.20;60.20;;;;;;5070825;28;20721;-51
2021/04/11 09:00:26;;;;;;;2.70;2.30;;;17.10;61.20;;;;;;5069523;28;20625;-51
2021/04/11 09:03:03;;;;;;;3.73;2.70;;;16.90;62.00;;;;;;5068535;28;20625;-51
2021/04/11 09:05:34;;;;;;;2.90;2.50;;;17.00;62.50;;;;;;5071454;28;21058;-51
2021/04/11 09:08:13;;;;;;;2.57;2.37;;;17.20;61.80;;;;;;5070846;28;20682;-51
2021/04/11 09:10:48;;;;;;;4.17;2.63;;;17.20;61.30;;;;;;5071624;28;20625;-51
2021/04/11 09:13:19;;;;;;;3.10;2.50;;;17.40;60.10;;;;;;5071266;28;20633;-51
2021/04/11 09:15:49;;;;;;;3.00;2.70;;;17.40;60.10;;;;;;5071145;28;20653;-51
2021/04/11 09:18:25;;;;;;;4.00;3.10;;;17.60;60.00;;;;;;5071471;28;20683;-51
2021/04/11 09:21:02;;;;;;;4.23;2.80;;;17.80;59.70;;;;;;5071784;28;20632;-52
2021/04/11 09:23:43;;;;;;;4.20;2.80;;;18.10;59.40;;;;;;5071566;28;20625;-51
2021/04/11 09:26:26;;;;;;;8.13;4.00;;;18.20;58.70;;;;;;5071507;28;20687;-52
2021/04/11 09:28:56;;;;;;;2.93;2.63;;;18.30;58.50;;;;;;5071438;28;20633;-52
2021/04/11 09:31:33;;;;;;;3.33;3.13;;;18.40;58.10;;;;;;5071700;28;20629;-52
2021/04/11 09:34:27;;;;;;;2.87;2.67;;;18.50;57.80;;;;;;5070156;28;20653;-52
2021/04/11 09:36:59;;;;;;;5.13;3.07;;;18.60;57.60;;;;;;5071296;28;20653;-52
2021/04/11 09:39:47;;;;;;;2.60;2.40;;;18.60;57.00;;;;;;5071645;28;20629;-52
2021/04/11 09:42:29;;;;;;;3.23;2.63;;;18.70;57.50;;;;;;5071676;28;21242;-52
2021/04/11 09:45:03;;;;;;;3.07;2.77;;;18.90;56.80;;;;;;5071110;28;20708;-52
2021/04/11 09:47:51;;;;;;;4.80;2.83;;;18.90;56.50;;;;;;5070957;28;21246;-52
2021/04/11 09:50:22;;;;;;;2.70;2.50;;;18.90;56.40;;;;;;5071532;28;20659;-52
2021/04/11 09:53:04;;;;;;;6.37;3.57;;;18.70;56.30;;;;;;5071122;28;20621;-52
2021/04/11 09:55:33;;;;;;;3.27;2.97;;;18.60;56.30;;;;;;5071294;28;20661;-52
2021/04/11 09:58:43;;;;;;;5.50;2.23;;;18.50;56.40;;;;;;5070695;28;20692;-52
2021/04/11 10:01:16;;;;;;;3.90;2.60;;;18.40;56.60;;;;;;5070899;28;20649;-52
2021/04/11 10:03:54;;;;;;;3.10;2.57;;;18.30;56.80;;;;;;5071183;28;20617;-52
2021/04/11 10:06:30;;;;;;;3.00;2.70;;;18.30;57.40;;;;;;5071092;28;20617;-52
2021/04/11 10:09:14;;;;;;;4.23;2.57;;;18.30;57.50;;;;;;5074434;28;20621;-52
2021/04/11 10:11:54;;;;;;;3.00;2.77;;;18.30;57.00;;;;;;5075096;28;21242;-52
2021/04/11 10:14:32;;;;;;;3.17;2.50;;;18.20;56.70;;;;;;5074702;28;20778;-52
2021/04/11 10:17:01;;;;;;;2.77;2.20;;;18.10;57.30;;;;;;5074631;28;20661;-52
2021/04/11 10:19:38;;;;;;;2.73;2.53;;;18.10;57.40;;;;;;5074090;28;20678;-52
2021/04/11 10:22:32;;;;;;;3.70;2.53;;;18.10;57.80;;;;;;5075067;28;21236;-51
2021/04/11 10:25:09;;;;;;;3.23;2.50;;;18.00;57.80;;;;;;5074937;28;20657;-52
2021/04/11 10:27:38;;;;;;;4.03;3.03;;;18.00;57.60;;;;;;5074480;28;20682;-52
2021/04/11 10:30:08;;;;;;;1.93;1.80;;;18.00;58.20;;;;;;5075062;28;20621;-52
2021/04/11 10:32:45;;;;;;;2.90;2.70;;;17.90;57.80;;;;;;5074516;28;20633;-50
2021/04/11 10:35:13;;;;;;;5.03;3.77;;;17.60;58.20;;;;;;5074551;28;20683;-51
2021/04/11 10:37:42;;;;;;;2.67;2.47;;;17.50;58.80;;;;;;5073696;28;20903;-51
2021/04/11 10:40:19;;;;;;;4.03;2.93;;;17.40;59.30;;;;;;5074164;28;20624;-51
2021/04/11 10:42:51;;;;;;;2.90;2.70;;;17.40;59.70;;;;;;5074188;28;20683;-50
2021/04/11 10:45:28;;;;;;;6.40;3.83;;;17.40;59.90;;;;;;5074188;28;21275;-50
2021/04/11 10:48:21;;;;;;;4.23;3.83;;;17.40;60.60;;;;;;5074056;28;21173;-51
2021/04/11 10:50:54;;;;;;;3.80;3.50;;;17.40;60.90;;;;;;5074467;28;20633;-51
2021/04/11 10:53:28;;;;;;;3.80;3.50;;;17.50;60.80;;;;;;5073988;28;20663;-51
2021/04/11 10:56:16;;;;;;;4.87;3.13;;;17.50;59.80;;;;;;5073242;28;20665;-51
2021/04/11 10:59:21;;;;;;;3.30;3.10;;;17.50;60.10;;;;;;5074281;28;20662;-52
2021/04/11 11:02:17;;;;;;;2.93;2.60;;;17.40;60.10;;;;;;5012408;28;21066;-52
2021/04/11 11:05:10;;;;;;;1.70;1.60;;;17.40;60.80;;;;;;5067152;28;20669;-52
2021/04/11 11:07:57;;;;;;;3.07;2.33;;;17.20;61.40;;;;;;5069022;28;20683;-52
2021/04/11 11:10:34;;;;;;;2.07;1.90;;;17.10;62.20;;;;;;5073322;28;21227;-52
2021/04/11 11:13:17;;;;;;;4.00;2.30;;;17.00;62.90;;;;;;5073902;28;20748;-51
2021/04/11 11:16:10;;;;;;;2.80;2.33;;;17.00;63.40;;;;;;5073453;28;21109;-52
2021/04/11 11:18:46;;;;;;;3.20;2.70;;;16.90;63.70;;;;;;5056558;28;20633;-52
2021/04/11 11:22:03;;;;;;;2.63;2.23;;;16.90;63.60;;;;;;5073570;28;21230;-52
2021/04/11 11:24:41;;;;;;;2.87;2.57;;;16.90;63.60;;;;;;5072818;28;20649;-52
2021/04/11 11:27:18;;;;;;;4.50;2.90;;;16.80;63.50;;;;;;5073603;28;21022;-52
2021/04/11 11:30:11;;;;;;;2.90;2.23;;;16.90;63.70;;;;;;5073974;28;20627;-53
2021/04/11 11:32:47;;;;;;;5.17;2.37;;;16.90;63.60;;;;;;5073169;28;20625;-52
2021/04/11 11:35:15;;;;;;;2.57;2.13;;;16.90;63.80;;;;;;5073297;28;20660;-52
2021/04/11 11:37:47;;;;;;;2.67;2.10;;;16.80;63.60;;;;;;5072694;28;20649;-52
2021/04/11 11:40:17;;;;;;;4.73;2.67;;;16.70;63.60;;;;;;5073460;28;20663;-52
2021/04/11 11:42:51;;;;;;;3.87;2.87;;;16.70;64.10;;;;;;5071877;28;20695;-52
2021/04/11 11:45:22;;;;;;;5.03;2.70;;;16.50;65.60;;;;;;5072591;28;20717;-51
2021/04/11 11:47:55;;;;;;;3.77;2.97;;;16.50;66.70;;;;;;5073812;28;20625;-52
2021/04/11 11:50:25;;;;;;;4.80;2.63;;;16.40;68.00;;;;;;5069373;28;20632;-52
2021/04/11 11:52:53;;;;;;;4.37;2.77;;;16.30;69.20;;;;;;5073043;28;20625;-53
2021/04/11 11:55:22;;;;;;;3.33;2.97;;;16.20;70.00;;;;;;5066335;28;20664;-52
2021/04/11 11:57:52;;;;;;;5.67;2.23;;;16.20;70.70;;;;;;5071279;28;21327;-52
2021/04/11 12:00:21;;;;;;;2.63;2.43;;;16.20;71.00;;;;;;5067447;28;21045;-52
2021/04/11 12:02:57;;;;;;;3.43;2.70;;;16.20;70.70;;;;;;5070643;28;21109;-52
2021/04/11 12:05:25;;;;;;;5.20;3.00;;;16.20;70.70;;;;;;5067885;28;20750;-52
2021/04/11 12:07:58;;;;;;;4.00;2.40;;;16.20;70.60;;;;;;5072233;28;20617;-52
2021/04/11 12:10:30;;;;;;;4.10;3.00;;;16.20;70.20;;;;;;5066522;28;21223;-52
2021/04/11 12:13:13;;;;;;;4.23;3.10;;;16.20;70.00;;;;;;5069006;28;20662;-52
2021/04/11 12:15:42;;;;;;;4.40;3.37;;;16.20;70.00;;;;;;5072149;28;20637;-52
2021/04/11 12:18:11;;;;;;;4.70;2.80;;;16.20;70.10;;;;;;5070885;28;20707;-52
2021/04/11 12:20:43;;;;;;;3.30;3.00;;;16.20;70.30;;;;;;5066158;28;20990;-52
2021/04/11 12:23:13;;;;;;;2.97;2.77;;;16.10;70.50;;;;;;5069721;28;20691;-52
2021/04/11 12:25:40;;;;;;;4.03;2.70;;;16.10;70.90;;;;;;5069042;28;20646;-52
2021/04/11 12:28:11;;;;;;;3.40;3.10;;;16.10;71.10;;;;;;5064709;28;20622;-52
2021/04/11 12:30:39;;;;;;;6.40;3.23;;;16.20;71.20;;;;;;5066910;28;21022;-51
2021/04/11 12:33:12;;;;;;;3.53;3.03;;;16.20;71.30;;;;;;5068414;28;20701;-52
2021/04/11 12:35:41;;;;;;;3.70;2.67;;;16.20;71.00;;;;;;5068050;28;20676;-52
2021/04/11 12:38:14;;;;;;;3.93;3.63;;;16.20;70.90;;;;;;5069465;28;20676;-52
2021/04/11 12:40:43;;;;;;;3.90;3.50;;;16.20;70.80;;;;;;5071791;28;20781;-52
2021/04/11 12:43:12;;;;;;;4.93;3.87;;;16.20;71.10;;;;;;5070518;28;20625;-52
2021/04/11 12:45:45;;;;;;;5.87;4.40;;;16.20;71.10;;;;;;5067489;28;20691;-52
2021/04/11 12:48:16;;;;;;;4.00;3.53;;;16.20;71.00;;;;;;5071754;28;20617;-52
2021/04/11 12:50:47;;;;;;;3.20;2.40;;;16.10;70.60;;;;;;5071204;28;20621;-52
2021/04/11 12:53:18;;;;;;;4.10;2.90;;;16.00;70.90;;;;;;5068426;28;20637;-51
2021/04/11 12:55:49;;;;;;;2.47;2.00;;;15.90;71.60;;;;;;5067228;28;21434;-52
2021/04/11 12:58:22;;;;;;;5.73;2.03;;;15.90;71.70;;;;;;5067863;28;20718;-52
2021/04/11 13:00:55;;;;;;;3.30;2.47;;;15.90;71.50;;;;;;5070943;28;20633;-52
2021/04/11 13:03:23;;;;;;;2.27;2.07;;;15.90;71.30;;;;;;5071405;28;20617;-51
2021/04/11 13:05:52;;;;;;;1.70;1.60;;;15.80;71.10;;;;;;5070442;28;20649;-52
2021/04/11 13:08:22;;;;;;;2.00;1.90;;;15.70;70.80;;;;;;5071119;28;20629;-51
2021/04/11 13:10:58;;;;;;;1.63;1.47;;;15.70;71.30;;;;;;5065027;28;20678;-52
2021/04/11 13:13:27;;;;;;;2.30;2.10;;;15.60;71.90;;;;;;5064117;28;20633;-52
2021/04/11 13:15:57;;;;;;;3.23;2.80;;;15.50;72.90;;;;;;5069882;28;20687;-52
2021/04/11 13:18:31;;;;;;;2.90;2.60;;;15.50;74.50;;;;;;5069884;28;21233;-50
2021/04/11 13:21:05;;;;;;;3.10;2.80;;;15.50;76.20;;;;;;5064757;28;21032;-53